createdAt,value
2022-11-19T00:00:25.560Z,96485.22
2022-11-19T00:02:55.119Z,96494.13
2022-11-19T00:05:21.603Z,96503.06
2022-11-19T00:07:48.045Z,96506.34
2022-11-19T00:10:14.507Z,96516.41
2022-11-19T00:12:56.192Z,96513.97
2022-11-19T00:15:23.297Z,96517.56
2022-11-19T00:17:49.765Z,96517.03
2022-11-19T00:20:17.637Z,96519.19
2022-11-19T00:22:44.893Z,96516.47
2022-11-19T00:25:11.949Z,96524.09
2022-11-19T00:27:38.384Z,96520.81
2022-11-19T00:30:10.971Z,96523.84
2022-11-19T00:32:46.968Z,96515.81
2022-11-19T00:35:13.836Z,96521.88
2022-11-19T00:37:40.353Z,96526.25
2022-11-19T00:40:12.027Z,96520.22
2022-11-19T00:42:39.419Z,96529.97
2022-11-19T00:45:06.830Z,96536.66
2022-11-19T00:47:33.273Z,96540.69
2022-11-19T00:49:59.736Z,96542.03
2022-11-19T00:52:26.200Z,96541.19
2022-11-19T00:54:52.650Z,96533.34
2022-11-19T00:57:19.117Z,96546.53
2022-11-19T00:59:45.648Z,96549.09
2022-11-19T01:02:12.089Z,96550.69
2022-11-19T01:04:38.664Z,96561.22
2022-11-19T01:07:06.153Z,96553.41
2022-11-19T01:09:32.646Z,96558.06
2022-11-19T01:11:59.096Z,96548.69
2022-11-19T01:14:25.541Z,96544.97
2022-11-19T01:16:52.226Z,96550.28
2022-11-19T01:19:19.081Z,96550.72
2022-11-19T01:21:46.230Z,96557.56
2022-11-19T01:24:12.717Z,96561.34
2022-11-19T01:26:44.306Z,96566.59
2022-11-19T01:29:12.133Z,96567.41
2022-11-19T01:31:38.869Z,96568.25
2022-11-19T01:34:05.337Z,96561.78
2022-11-19T01:36:31.841Z,96566.16
2022-11-19T01:38:58.509Z,96570.53
2022-11-19T01:41:29.390Z,96580.84
2022-11-19T01:43:59.095Z,96592.22
2022-11-19T01:46:29.266Z,96579.16
2022-11-19T01:48:59.003Z,96592.25
2022-11-19T01:51:25.438Z,96595.81
2022-11-19T01:53:53.271Z,96594.50
2022-11-19T01:56:20.978Z,96593.16
2022-11-19T01:58:49.642Z,96595.63
2022-11-19T02:01:17.531Z,96589.41
2022-11-19T02:03:44.036Z,96596.47
2022-11-19T02:06:11.558Z,96597.56
2022-11-19T02:08:38.150Z,96590.47
2022-11-19T02:11:18.712Z,96595.91
2022-11-19T02:13:48.166Z,96601.41
2022-11-19T02:16:34.881Z,96603.69
2022-11-19T02:19:30.789Z,96608.19
2022-11-19T02:22:29.907Z,96611.16
2022-11-19T02:25:03.871Z,96610.50
2022-11-19T02:27:42.624Z,96603.63
2022-11-19T02:30:19.380Z,96610.34
2022-11-19T02:32:56.757Z,96614.59
2022-11-19T02:35:23.204Z,96610.63
2022-11-19T02:37:55.768Z,96603.28
2022-11-19T02:40:28.434Z,96614.50
2022-11-19T02:42:57.929Z,96607.47
2022-11-19T02:45:30.566Z,96611.91
2022-11-19T02:48:00.421Z,96613.44
2022-11-19T02:50:31.795Z,96614.81
2022-11-19T02:52:58.314Z,96617.53
2022-11-19T02:55:24.907Z,96623.03
2022-11-19T02:58:00.804Z,96625.53
2022-11-19T03:00:47.059Z,96628.28
2022-11-19T03:03:36.378Z,96632.06
2022-11-19T03:06:05.663Z,96640.53
2022-11-19T03:08:32.355Z,96645.81
2022-11-19T03:11:19.025Z,96651.69
2022-11-19T03:14:22.779Z,96658.84
2022-11-19T03:16:58.760Z,96661.13
2022-11-19T03:19:31.597Z,96666.69
2022-11-19T03:22:00.592Z,96673.94
2022-11-19T03:24:32.821Z,96674.84
2022-11-19T03:27:08.318Z,96676.69
2022-11-19T03:29:36.386Z,96677.91
2022-11-19T03:32:07.397Z,96671.78
2022-11-19T03:34:34.864Z,96671.25
2022-11-19T03:37:02.800Z,96675.34
2022-11-19T03:39:29.484Z,96679.19
2022-11-19T03:41:56.708Z,96678.03
2022-11-19T03:44:32.671Z,96687.56
2022-11-19T03:47:02.177Z,96681.53
2022-11-19T03:49:31.883Z,96680.03
2022-11-19T03:52:12.572Z,96680.41
2022-11-19T03:54:39.730Z,96684.44
2022-11-19T03:57:07.740Z,96686.97
2022-11-19T03:59:35.073Z,96683.91
2022-11-19T04:02:03.230Z,96687.91
2022-11-19T04:04:36.936Z,96693.56
2022-11-19T04:07:14.411Z,96699.91
2022-11-19T04:09:41.859Z,96689.13
2022-11-19T04:12:12.552Z,96689.28
2022-11-19T04:14:39.026Z,96693.72
2022-11-19T04:17:05.480Z,96687.84
2022-11-19T04:19:31.991Z,96688.22
2022-11-19T04:21:58.657Z,96688.91
2022-11-19T04:24:25.097Z,96686.97
2022-11-19T04:26:51.577Z,96693.84
2022-11-19T04:29:18.332Z,96688.28
2022-11-19T04:31:45.057Z,96685.28
2022-11-19T04:34:11.599Z,96689.16
2022-11-19T04:36:40.080Z,96695.44
2022-11-19T04:39:06.599Z,96687.91
2022-11-19T04:41:33.337Z,96700.16
2022-11-19T04:43:59.945Z,96707.81
2022-11-19T04:46:26.413Z,96715.50
2022-11-19T04:48:52.868Z,96725.31
2022-11-19T04:51:19.374Z,96731.66
2022-11-19T04:53:45.844Z,96735.03
2022-11-19T04:56:12.328Z,96735.31
2022-11-19T04:58:38.890Z,96738.53
2022-11-19T05:01:05.830Z,96745.88
2022-11-19T05:03:32.388Z,96754.44
2022-11-19T05:05:58.859Z,96758.31
2022-11-19T05:08:25.346Z,96756.63
2022-11-19T05:10:51.819Z,96748.09
2022-11-19T05:13:18.290Z,96750.53
2022-11-19T05:15:44.729Z,96758.50
2022-11-19T05:18:11.990Z,96755.75
2022-11-19T05:20:38.600Z,96759.97
2022-11-19T05:23:05.103Z,96766.59
2022-11-19T05:25:31.569Z,96767.44
2022-11-19T05:27:58.233Z,96768.81
2022-11-19T05:30:24.829Z,96771.28
2022-11-19T05:32:51.282Z,96779.22
2022-11-19T05:35:17.817Z,96781.00
2022-11-19T05:37:44.335Z,96783.69
2022-11-19T05:40:10.889Z,96786.38
2022-11-19T05:42:37.368Z,96793.22
2022-11-19T05:45:03.988Z,96795.84
2022-11-19T05:47:30.440Z,96797.75
2022-11-19T05:49:56.901Z,96801.88
2022-11-19T05:52:23.364Z,96812.59
2022-11-19T05:54:49.822Z,96816.28
2022-11-19T05:57:16.512Z,96814.59
2022-11-19T05:59:44.196Z,96831.28
2022-11-19T06:02:11.096Z,96823.63
2022-11-19T06:04:38.079Z,96819.94
2022-11-19T06:07:04.646Z,96821.69
2022-11-19T06:09:31.135Z,96826.38
2022-11-19T06:11:57.601Z,96836.31
2022-11-19T06:14:25.245Z,96838.13
2022-11-19T06:16:56.057Z,96836.88
2022-11-19T06:19:22.784Z,96847.63
2022-11-19T06:21:49.661Z,96852.47
2022-11-19T06:24:16.216Z,96857.97
2022-11-19T06:26:42.995Z,96857.72
2022-11-19T06:29:10.564Z,96871.63
2022-11-19T06:31:37.061Z,96873.81
2022-11-19T06:34:03.723Z,96871.03
2022-11-19T06:36:36.107Z,96879.16
2022-11-19T06:39:05.573Z,96879.47
2022-11-19T06:41:32.036Z,96881.66
2022-11-19T06:43:58.480Z,96891.06
2022-11-19T06:46:24.969Z,96885.06
2022-11-19T06:48:51.443Z,96885.13
2022-11-19T06:51:17.915Z,96886.50
2022-11-19T06:53:44.510Z,96896.94
2022-11-19T06:56:11.184Z,96905.94
2022-11-19T06:58:37.819Z,96907.25
2022-11-19T07:01:04.369Z,96915.28
2022-11-19T07:03:30.820Z,96912.56
2022-11-19T07:05:59.486Z,96923.78
2022-11-19T07:08:26.498Z,96931.72
2022-11-19T07:10:53.024Z,96925.75
2022-11-19T07:13:19.556Z,96931.94
2022-11-19T07:15:46.007Z,96927.94
2022-11-19T07:18:13.081Z,96945.81
2022-11-19T07:20:39.712Z,96939.25
2022-11-19T07:23:09.591Z,96938.38
2022-11-19T07:25:36.052Z,96943.75
2022-11-19T07:28:02.504Z,96948.78
2022-11-19T07:30:29.066Z,96948.84
2022-11-19T07:32:55.700Z,96953.84
2022-11-19T07:35:22.182Z,96958.78
2022-11-19T07:37:48.611Z,96955.94
2022-11-19T07:40:16.687Z,96963.97
2022-11-19T07:42:49.197Z,96970.91
2022-11-19T07:45:16.813Z,96967.41
2022-11-19T07:47:43.300Z,96974.53
2022-11-19T07:50:10.021Z,96981.00
2022-11-19T07:52:36.535Z,96987.06
2022-11-19T07:55:03.282Z,96992.75
2022-11-19T07:57:30.571Z,96994.78
2022-11-19T07:59:57.543Z,96997.38
2022-11-19T08:02:24.047Z,96997.19
2022-11-19T08:04:50.592Z,96997.72
2022-11-19T08:07:17.145Z,96995.94
2022-11-19T08:09:43.680Z,96996.28
2022-11-19T08:12:10.120Z,96994.69
2022-11-19T08:14:36.627Z,96996.09
2022-11-19T08:17:21.517Z,96998.19
2022-11-19T08:19:47.989Z,97007.66
2022-11-19T08:22:14.657Z,97005.06
2022-11-19T08:24:41.125Z,97008.94
2022-11-19T08:27:07.601Z,97026.66
2022-11-19T08:29:34.162Z,97018.59
2022-11-19T08:32:00.665Z,97021.03
2022-11-19T08:34:27.377Z,97031.59
2022-11-19T08:36:54.075Z,97028.47
2022-11-19T08:39:20.630Z,97039.19
2022-11-19T08:42:05.869Z,97044.22
2022-11-19T08:44:32.344Z,97037.75
2022-11-19T08:46:58.818Z,97046.78
2022-11-19T08:49:25.334Z,97051.84
2022-11-19T08:51:52.141Z,97049.00
2022-11-19T08:54:19.237Z,97066.47
2022-11-19T08:56:46.073Z,97061.16
2022-11-19T08:59:12.553Z,97058.28
2022-11-19T09:01:39.228Z,97057.53
2022-11-19T09:04:05.718Z,97058.22
2022-11-19T09:06:35.249Z,97059.34
2022-11-19T09:09:02.385Z,97063.53
2022-11-19T09:11:28.867Z,97060.56
2022-11-19T09:13:56.477Z,97073.69
2022-11-19T09:16:22.995Z,97067.19
2022-11-19T09:18:49.718Z,97075.72
2022-11-19T09:21:16.235Z,97085.88
2022-11-19T09:23:42.941Z,97087.50
2022-11-19T09:26:12.036Z,97100.41
2022-11-19T09:28:38.583Z,97099.25
2022-11-19T09:31:12.804Z,97094.19
2022-11-19T09:33:42.171Z,97103.44
2022-11-19T09:36:10.144Z,97105.06
2022-11-19T09:38:36.705Z,97107.28
2022-11-19T09:41:22.001Z,97109.59
2022-11-19T09:44:00.953Z,97109.75
2022-11-19T09:46:54.061Z,97115.28
2022-11-19T09:49:28.827Z,97118.47
2022-11-19T09:51:59.492Z,97106.53
2022-11-19T09:54:26.358Z,97107.28
2022-11-19T09:56:59.248Z,97106.53
2022-11-19T09:59:30.608Z,97104.31
2022-11-19T10:01:57.402Z,97101.22
2022-11-19T10:04:26.661Z,97097.13
2022-11-19T10:06:56.193Z,97100.88
2022-11-19T10:09:34.160Z,97105.88
2022-11-19T10:12:07.889Z,97108.88
2022-11-19T10:14:43.127Z,97103.09
2022-11-19T10:17:09.640Z,97102.81
2022-11-19T10:19:47.985Z,97105.59
2022-11-19T10:22:22.290Z,97115.09
2022-11-19T10:24:51.840Z,97118.50
2022-11-19T10:27:22.494Z,97121.81
2022-11-19T10:29:52.753Z,97114.56
2022-11-19T10:32:26.335Z,97117.31
2022-11-19T10:34:58.594Z,97116.53
2022-11-19T10:37:26.947Z,97120.25
2022-11-19T10:39:57.679Z,97133.44
2022-11-19T10:42:47.385Z,97118.06
2022-11-19T10:45:19.044Z,97130.81
2022-11-19T10:47:48.567Z,97118.84
2022-11-19T10:50:19.369Z,97118.50
2022-11-19T10:52:50.157Z,97111.22
2022-11-19T10:55:42.769Z,97115.13
2022-11-19T10:58:17.275Z,97117.31
2022-11-19T11:00:44.056Z,97110.03
2022-11-19T11:03:32.410Z,97104.84
2022-11-19T11:06:05.295Z,97103.16
2022-11-19T11:08:46.609Z,97103.09
2022-11-19T11:11:13.229Z,97103.97
2022-11-19T11:13:59.471Z,97105.28
2022-11-19T11:16:31.554Z,97104.06
2022-11-19T11:19:00.878Z,97097.66
2022-11-19T11:21:30.464Z,97094.78
2022-11-19T11:23:57.656Z,97089.78
2022-11-19T11:26:25.545Z,97090.25
2022-11-19T11:29:02.460Z,97092.81
2022-11-19T11:31:30.231Z,97083.50
2022-11-19T11:33:57.456Z,97083.38
2022-11-19T11:36:28.233Z,97075.31
2022-11-19T11:38:56.233Z,97079.47
2022-11-19T11:44:22.009Z,97083.59
2022-11-19T11:46:52.891Z,97075.94
2022-11-19T11:49:30.982Z,97082.25
2022-11-19T11:52:23.990Z,97078.06
2022-11-19T11:55:01.490Z,97081.56
2022-11-19T11:57:29.407Z,97072.47
2022-11-19T11:59:56.372Z,97069.47
2022-11-19T12:02:27.146Z,97066.84
2022-11-19T12:04:54.943Z,97077.09
2022-11-19T12:07:21.793Z,97072.81
2022-11-19T12:09:48.290Z,97067.28
2022-11-19T12:12:24.786Z,97071.13
2022-11-19T12:15:06.347Z,97074.41
2022-11-19T12:17:40.405Z,97070.66
2022-11-19T12:20:22.695Z,97071.94
2022-11-19T12:23:05.533Z,97068.16
2022-11-19T12:25:32.033Z,97072.13
2022-11-19T12:28:01.682Z,97070.88
2022-11-19T12:30:38.156Z,97078.56
2022-11-19T12:33:22.598Z,97080.56
2022-11-19T12:36:01.227Z,97076.25
2022-11-19T12:38:44.664Z,97089.31
2022-11-19T12:41:17.365Z,97081.50
2022-11-19T12:43:55.980Z,97082.97
2022-11-19T12:46:33.253Z,97080.34
2022-11-19T12:49:11.938Z,97071.78
2022-11-19T12:51:46.307Z,97076.09
2022-11-19T12:54:35.355Z,97072.88
2022-11-19T12:57:14.231Z,97065.53
2022-11-19T12:59:59.799Z,97059.84
2022-11-19T13:02:29.252Z,97052.63
2022-11-19T13:05:01.181Z,97065.19
2022-11-19T13:07:32.456Z,97061.06
2022-11-19T13:10:14.937Z,97066.59
2022-11-19T13:12:43.532Z,97065.22
2022-11-19T13:15:30.388Z,97063.72
2022-11-19T13:17:58.698Z,97067.31
2022-11-19T13:20:51.465Z,97060.22
2022-11-19T13:23:31.339Z,97056.81
2022-11-19T13:26:03.581Z,97063.34
2022-11-19T13:28:39.864Z,97056.59
2022-11-19T13:31:10.704Z,97056.25
2022-11-19T13:33:45.624Z,97053.25
2022-11-19T13:36:22.363Z,97053.72
2022-11-19T13:38:54.607Z,97062.50
2022-11-19T13:41:35.918Z,97058.38
2022-11-19T13:44:20.877Z,97060.53
2022-11-19T13:46:47.369Z,97063.66
2022-11-19T13:49:34.392Z,97072.63
2022-11-19T13:52:07.926Z,97070.44
2022-11-19T13:54:35.477Z,97063.53
2022-11-19T13:57:02.069Z,97071.47
2022-11-19T13:59:39.579Z,97071.38
2022-11-19T14:02:15.605Z,97079.66
2022-11-19T14:04:42.071Z,97077.69
2022-11-19T14:07:08.535Z,97067.13
2022-11-19T14:09:53.772Z,97073.47
2022-11-19T14:12:20.203Z,97078.91
2022-11-19T14:15:19.210Z,97073.69
2022-11-19T14:18:09.809Z,97072.41
2022-11-19T14:20:56.354Z,97075.34
2022-11-19T14:24:00.437Z,97074.22
2022-11-19T14:26:42.377Z,97079.09
2022-11-19T14:29:18.225Z,97081.09
2022-11-19T14:31:59.918Z,97080.75
2022-11-19T14:34:27.983Z,97080.75
2022-11-19T14:36:56.128Z,97080.22
2022-11-19T14:39:25.117Z,97073.59
2022-11-19T14:42:10.344Z,97087.38
2022-11-19T14:44:37.145Z,97078.28
2022-11-19T14:47:22.053Z,97086.59
2022-11-19T14:49:50.008Z,97089.47
2022-11-19T14:52:36.710Z,97100.69
2022-11-19T14:55:06.499Z,97092.59
2022-11-19T14:57:35.283Z,97093.34
2022-11-19T15:00:04.573Z,97091.16
2022-11-19T15:02:37.477Z,97088.56
2022-11-19T15:05:14.536Z,97087.50
2022-11-19T15:07:41.063Z,97083.22
2022-11-19T15:10:10.454Z,97081.03
2022-11-19T15:12:42.960Z,97070.50
2022-11-19T15:15:22.320Z,97069.72
2022-11-19T15:18:02.415Z,97064.88
2022-11-19T15:20:32.124Z,97056.56
2022-11-19T15:23:05.919Z,97066.09
2022-11-19T15:25:51.153Z,97067.75
2022-11-19T15:28:17.670Z,97074.44
2022-11-19T15:30:47.068Z,97076.34
2022-11-19T15:33:32.254Z,97087.31
2022-11-19T15:36:19.066Z,97096.06
2022-11-19T15:38:48.490Z,97104.38
2022-11-19T15:41:18.566Z,97107.72
2022-11-19T15:43:48.518Z,97122.53
2022-11-19T15:46:18.690Z,97126.19
2022-11-19T15:49:00.489Z,97125.22
2022-11-19T15:51:27.284Z,97136.72
2022-11-19T15:53:57.567Z,97142.66
2022-11-19T15:56:24.131Z,97137.41
2022-11-19T15:58:50.621Z,97136.22
2022-11-19T16:01:17.944Z,97141.94
2022-11-19T16:03:45.040Z,97145.31
2022-11-19T16:06:17.523Z,97144.47
2022-11-19T16:08:45.325Z,97144.06
2022-11-19T16:11:36.562Z,97154.22
2022-11-19T16:14:22.126Z,97157.53
2022-11-19T16:17:10.335Z,97161.50
2022-11-19T16:19:36.857Z,97168.78
2022-11-19T16:22:04.790Z,97162.34
2022-11-19T16:24:50.380Z,97163.69
2022-11-19T16:27:23.938Z,97156.69
2022-11-19T16:29:50.812Z,97156.84
2022-11-19T16:32:18.788Z,97156.38
2022-11-19T16:34:45.827Z,97156.78
2022-11-19T16:37:17.284Z,97153.94
2022-11-19T16:39:48.711Z,97153.25
2022-11-19T16:42:17.034Z,97154.41
2022-11-19T16:45:03.923Z,97164.81
2022-11-19T16:47:33.021Z,97176.31
2022-11-19T16:50:04.464Z,97172.44
2022-11-19T16:52:37.179Z,97169.16
2022-11-19T16:55:26.938Z,97162.78
2022-11-19T16:57:54.476Z,97153.56
2022-11-19T17:00:22.468Z,97160.84
2022-11-19T17:02:49.638Z,97155.84
2022-11-19T17:05:18.772Z,97160.47
2022-11-19T17:07:47.486Z,97165.78
2022-11-19T17:10:13.903Z,97157.69
2022-11-19T17:12:49.767Z,97164.56
2022-11-19T17:15:28.527Z,97163.00
2022-11-19T17:17:55.045Z,97168.81
2022-11-19T17:20:27.854Z,97166.34
2022-11-19T17:22:54.471Z,97165.22
2022-11-19T17:25:20.976Z,97166.56
2022-11-19T17:27:52.743Z,97161.25
2022-11-19T17:30:20.701Z,97155.69
2022-11-19T17:32:54.490Z,97163.91
2022-11-19T17:35:33.378Z,97156.44
2022-11-19T17:38:00.638Z,97154.50
2022-11-19T17:40:27.085Z,97145.34
2022-11-19T17:43:12.188Z,97151.41
2022-11-19T17:45:38.634Z,97149.22
2022-11-19T17:48:13.837Z,97144.63
2022-11-19T17:50:40.297Z,97144.50
2022-11-19T17:53:07.854Z,97148.00
2022-11-19T17:55:34.441Z,97147.25
2022-11-19T17:58:00.891Z,97148.00
2022-11-19T18:00:27.844Z,97148.31
2022-11-19T18:02:56.832Z,97158.50
2022-11-19T18:05:28.412Z,97156.78
2022-11-19T18:07:55.152Z,97171.06
2022-11-19T18:10:22.590Z,97161.31
2022-11-19T18:12:49.025Z,97164.19
2022-11-19T18:15:19.511Z,97165.88
2022-11-19T18:17:46.545Z,97160.81
2022-11-19T18:20:13.557Z,97164.66
2022-11-19T18:22:40.512Z,97166.81
2022-11-19T18:25:14.725Z,97175.97
2022-11-19T18:27:41.276Z,97168.72
2022-11-19T18:30:08.120Z,97167.09
2022-11-19T18:32:34.617Z,97173.59
2022-11-19T18:35:02.119Z,97165.88
2022-11-19T18:37:29.333Z,97169.75
2022-11-19T18:39:56.000Z,97165.88
2022-11-19T18:42:22.420Z,97157.19
2022-11-19T18:44:49.064Z,97159.28
2022-11-19T18:47:15.527Z,97160.47
2022-11-19T18:49:42.068Z,97155.97
2022-11-19T18:52:11.636Z,97152.25
2022-11-19T18:54:38.137Z,97156.59
2022-11-19T18:57:04.574Z,97157.56
2022-11-19T18:59:31.797Z,97166.16
2022-11-19T19:01:58.313Z,97157.81
2022-11-19T19:04:24.879Z,97155.38
2022-11-19T19:06:51.543Z,97158.38
2022-11-19T19:09:21.482Z,97148.97
2022-11-19T19:12:12.599Z,97143.16
2022-11-19T19:14:39.730Z,97148.25
2022-11-19T19:17:06.214Z,97145.13
2022-11-19T19:19:32.689Z,97147.28
2022-11-19T19:21:59.541Z,97143.16
2022-11-19T19:24:26.583Z,97150.28
2022-11-19T19:26:53.091Z,97147.88
2022-11-19T19:29:19.772Z,97162.53
2022-11-19T19:31:46.535Z,97163.69
2022-11-19T19:34:12.954Z,97163.69
2022-11-19T19:36:39.389Z,97167.78
2022-11-19T19:39:05.847Z,97166.13
2022-11-19T19:41:33.413Z,97166.13
2022-11-19T19:44:01.309Z,97171.94
2022-11-19T19:46:27.746Z,97174.06
2022-11-19T19:48:55.348Z,97183.91
2022-11-19T19:51:23.428Z,97174.81
2022-11-19T19:53:50.581Z,97179.06
2022-11-19T19:56:21.272Z,97190.03
2022-11-19T19:58:48.434Z,97192.19
2022-11-19T20:01:16.707Z,97194.53
2022-11-19T20:03:44.011Z,97202.88
2022-11-19T20:06:11.837Z,97195.59
2022-11-19T20:08:38.801Z,97200.31
2022-11-19T20:11:06.821Z,97193.94
2022-11-19T20:13:33.692Z,97192.56
2022-11-19T20:16:04.249Z,97189.44
2022-11-19T20:18:32.035Z,97190.50
2022-11-19T20:20:59.687Z,97193.84
2022-11-19T20:23:27.167Z,97184.78
2022-11-19T20:26:04.333Z,97192.78
2022-11-19T20:28:31.133Z,97187.44
2022-11-19T20:31:05.275Z,97195.81
2022-11-19T20:33:31.920Z,97197.97
2022-11-19T20:35:58.387Z,97203.66
2022-11-19T20:38:24.842Z,97201.34
2022-11-19T20:41:01.686Z,97214.34
2022-11-19T20:43:52.536Z,97217.94
2022-11-19T20:46:20.740Z,97216.59
2022-11-19T20:48:47.901Z,97228.31
2022-11-19T20:51:16.334Z,97223.19
2022-11-19T20:53:43.528Z,97226.47
2022-11-19T20:56:10.879Z,97224.38
2022-11-19T20:58:37.461Z,97231.41
2022-11-19T21:01:05.805Z,97224.75
2022-11-19T21:03:33.728Z,97225.31
2022-11-19T21:06:01.089Z,97226.47
2022-11-19T21:08:30.879Z,97226.09
2022-11-19T21:10:58.800Z,97227.44
2022-11-19T21:13:25.339Z,97229.34
2022-11-19T21:15:51.789Z,97227.16
2022-11-19T21:18:21.045Z,97222.75
2022-11-19T21:20:50.026Z,97230.19
2022-11-19T21:23:17.515Z,97224.06
2022-11-19T21:25:44.017Z,97232.78
2022-11-19T21:28:10.486Z,97232.94
2022-11-19T21:30:37.202Z,97227.44
2022-11-19T21:33:03.734Z,97238.22
2022-11-19T21:35:30.245Z,97236.22
2022-11-19T21:37:56.725Z,97231.22
2022-11-19T21:40:23.201Z,97231.03
2022-11-19T21:42:49.807Z,97231.94
2022-11-19T21:45:16.250Z,97231.88
2022-11-19T21:47:42.732Z,97230.53
2022-11-19T21:50:09.337Z,97225.81
2022-11-19T21:52:35.795Z,97232.09
2022-11-19T21:55:02.240Z,97232.84
2022-11-19T21:57:28.707Z,97229.84
2022-11-19T21:59:55.164Z,97227.38
2022-11-19T22:02:21.637Z,97219.03
2022-11-19T22:04:48.109Z,97223.28
2022-11-19T22:07:14.610Z,97218.81
2022-11-19T22:09:41.068Z,97224.66
2022-11-19T22:12:07.580Z,97211.75
2022-11-19T22:14:34.031Z,97209.06
2022-11-19T22:17:00.500Z,97205.19
2022-11-19T22:19:26.945Z,97203.91
2022-11-19T22:21:53.464Z,97200.44
2022-11-19T22:24:20.022Z,97199.00
2022-11-19T22:26:46.503Z,97198.00
2022-11-19T22:29:12.944Z,97203.25
2022-11-19T22:31:39.399Z,97196.00
2022-11-19T22:34:05.883Z,97192.19
2022-11-19T22:36:33.219Z,97195.59
2022-11-19T22:38:59.803Z,97186.31
2022-11-19T22:41:26.270Z,97185.16
2022-11-19T22:43:52.751Z,97176.53
2022-11-19T22:46:19.886Z,97170.94
2022-11-19T22:48:46.353Z,97173.03
2022-11-19T22:51:14.236Z,97166.56
2022-11-19T22:53:41.092Z,97165.88
2022-11-19T22:56:09.060Z,97160.81
2022-11-19T22:58:36.256Z,97159.97
2022-11-19T23:01:03.232Z,97156.31
2022-11-19T23:03:29.745Z,97158.00
2022-11-19T23:05:56.653Z,97147.53
2022-11-19T23:08:23.085Z,97145.38
2022-11-19T23:10:56.393Z,97144.19
2022-11-19T23:13:32.281Z,97134.13
2022-11-19T23:16:05.136Z,97129.13
2022-11-19T23:18:32.719Z,97127.63
2022-11-19T23:21:00.227Z,97124.06
2022-11-19T23:23:26.942Z,97123.56
2022-11-19T23:25:57.373Z,97127.63
2022-11-19T23:28:24.782Z,97128.72
2022-11-19T23:30:51.317Z,97120.94
2022-11-19T23:33:17.784Z,97119.81
2022-11-19T23:35:44.239Z,97116.38
2022-11-19T23:38:10.667Z,97116.69
2022-11-19T23:40:37.251Z,97110.63
2022-11-19T23:43:04.144Z,97105.47
2022-11-19T23:45:30.581Z,97092.28
2022-11-19T23:47:57.037Z,97089.41
2022-11-19T23:50:23.485Z,97092.81
2022-11-19T23:52:49.953Z,97095.22
2022-11-19T23:55:16.447Z,97097.19
2022-11-19T23:57:42.982Z,97101.88
